sensor_id;sensor_type;location;lat;lon;timestamp;temperature;humidity
18868;DHT22;9563;49.240;9.088;2023-05-02T05:01:47;11.00;99.90
18868;DHT22;9563;49.240;9.088;2023-05-02T05:04:14;11.00;99.90
18868;DHT22;9563;49.240;9.088;2023-05-02T05:06:40;10.90;99.90
18868;DHT22;9563;49.240;9.088;2023-05-02T05:09:07;10.90;99.90
18868;DHT22;9563;49.240;9.088;2023-05-02T05:11:34;11.00;99.90
18868;DHT22;9563;49.240;9.088;2023-05-02T05:14:03;11.00;99.90
18868;DHT22;9563;49.240;9.088;2023-05-02T05:16:29;11.10;99.90
18868;DHT22;9563;49.240;9.088;2023-05-02T05:18:57;11.20;99.90
18868;DHT22;9563;49.240;9.088;2023-05-02T05:21:24;11.30;99.90
18868;DHT22;9563;49.240;9.088;2023-05-02T05:23:51;11.40;99.90
18868;DHT22;9563;49.240;9.088;2023-05-02T05:26:18;11.50;99.90
18868;DHT22;9563;49.240;9.088;2023-05-02T05:28:45;11.50;99.90
18868;DHT22;9563;49.240;9.088;2023-05-02T05:31:13;11.60;99.90
18868;DHT22;9563;49.240;9.088;2023-05-02T05:33:42;11.70;99.90
18868;DHT22;9563;49.240;9.088;2023-05-02T05:36:11;11.70;99.90
18868;DHT22;9563;49.240;9.088;2023-05-02T05:38:39;11.70;99.90
18868;DHT22;9563;49.240;9.088;2023-05-02T05:41:06;11.80;99.90
18868;DHT22;9563;49.240;9.088;2023-05-02T05:43:33;11.80;99.90
18868;DHT22;9563;49.240;9.088;2023-05-02T05:46:00;11.90;99.90
18868;DHT22;9563;49.240;9.088;2023-05-02T05:48:27;11.90;99.90
18868;DHT22;9563;49.240;9.088;2023-05-02T05:50:54;11.90;99.90
18868;DHT22;9563;49.240;9.088;2023-05-02T05:53:23;11.90;99.90
18868;DHT22;9563;49.240;9.088;2023-05-02T05:55:50;11.80;99.90
18868;DHT22;9563;49.240;9.088;2023-05-02T05:58:17;11.80;99.90
18868;DHT22;9563;49.240;9.088;2023-05-02T06:00:43;11.90;99.90
18868;DHT22;9563;49.240;9.088;2023-05-02T06:03:10;11.80;99.90
18868;DHT22;9563;49.240;9.088;2023-05-02T06:05:37;11.80;99.90
18868;DHT22;9563;49.240;9.088;2023-05-02T06:08:04;11.70;99.90
18868;DHT22;9563;49.240;9.088;2023-05-02T06:10:32;11.60;99.90
18868;DHT22;9563;49.240;9.088;2023-05-02T06:12:59;11.60;99.90
18868;DHT22;9563;49.240;9.088;2023-05-02T06:15:26;11.70;99.90
18868;DHT22;9563;49.240;9.088;2023-05-02T06:17:53;11.70;99.90
18868;DHT22;9563;49.240;9.088;2023-05-02T06:20:20;11.80;99.90
18868;DHT22;9563;49.240;9.088;2023-05-02T06:22:46;11.80;99.90
18868;DHT22;9563;49.240;9.088;2023-05-02T06:25:13;12.00;99.90
18868;DHT22;9563;49.240;9.088;2023-05-02T06:27:42;11.90;99.90
18868;DHT22;9563;49.240;9.088;2023-05-02T06:30:09;12.00;99.90
18868;DHT22;9563;49.240;9.088;2023-05-02T06:32:36;12.10;99.90
18868;DHT22;9563;49.240;9.088;2023-05-02T06:35:03;12.20;99.90
18868;DHT22;9563;49.240;9.088;2023-05-02T06:37:32;12.30;99.90
18868;DHT22;9563;49.240;9.088;2023-05-02T06:40:00;12.30;99.90
18868;DHT22;9563;49.240;9.088;2023-05-02T06:42:27;12.30;99.90
18868;DHT22;9563;49.240;9.088;2023-05-02T06:44:55;12.40;99.90
18868;DHT22;9563;49.240;9.088;2023-05-02T06:47:22;12.40;99.90
18868;DHT22;9563;49.240;9.088;2023-05-02T06:49:49;12.50;99.90
18868;DHT22;9563;49.240;9.088;2023-05-02T06:52:16;12.60;99.90
18868;DHT22;9563;49.240;9.088;2023-05-02T06:54:43;12.60;99.90
18868;DHT22;9563;49.240;9.088;2023-05-02T06:57:10;12.60;99.90
18868;DHT22;9563;49.240;9.088;2023-05-02T06:59:37;12.60;99.90
18868;DHT22;9563;49.240;9.088;2023-05-02T07:02:05;12.70;99.90
18868;DHT22;9563;49.240;9.088;2023-05-02T07:04:32;12.90;99.90
18868;DHT22;9563;49.240;9.088;2023-05-02T07:06:59;13.10;99.90
18868;DHT22;9563;49.240;9.088;2023-05-02T07:09:26;13.30;99.90
18868;DHT22;9563;49.240;9.088;2023-05-02T07:11:53;13.30;99.90
18868;DHT22;9563;49.240;9.088;2023-05-02T07:14:19;13.50;99.90
18868;DHT22;9563;49.240;9.088;2023-05-02T07:16:46;13.50;99.90
18868;DHT22;9563;49.240;9.088;2023-05-02T07:19:15;13.50;99.90
18868;DHT22;9563;49.240;9.088;2023-05-02T07:21:42;13.70;99.90
18868;DHT22;9563;49.240;9.088;2023-05-02T07:24:08;13.90;99.90
18868;DHT22;9563;49.240;9.088;2023-05-02T07:26:35;14.00;99.90
18868;DHT22;9563;49.240;9.088;2023-05-02T07:29:02;14.30;99.90
18868;DHT22;9563;49.240;9.088;2023-05-02T07:31:31;14.80;99.90
18868;DHT22;9563;49.240;9.088;2023-05-02T07:33:58;15.20;99.90
18868;DHT22;9563;49.240;9.088;2023-05-02T07:36:26;15.50;99.90
18868;DHT22;9563;49.240;9.088;2023-05-02T07:38:53;15.80;99.90
18868;DHT22;9563;49.240;9.088;2023-05-02T07:41:20;16.20;99.90
18868;DHT22;9563;49.240;9.088;2023-05-02T07:43:46;16.60;99.90
18868;DHT22;9563;49.240;9.088;2023-05-02T07:46:13;16.60;99.90
18868;DHT22;9563;49.240;9.088;2023-05-02T07:48:40;16.70;99.90
18868;DHT22;9563;49.240;9.088;2023-05-02T07:51:08;16.90;99.90
18868;DHT22;9563;49.240;9.088;2023-05-02T07:53:36;16.90;99.90
18868;DHT22;9563;49.240;9.088;2023-05-02T07:56:04;17.00;99.90
18868;DHT22;9563;49.240;9.088;2023-05-02T07:58:31;17.00;99.90
18868;DHT22;9563;49.240;9.088;2023-05-02T08:00:58;17.30;99.90
18868;DHT22;9563;49.240;9.088;2023-05-02T08:03:25;17.70;99.90
18868;DHT22;9563;49.240;9.088;2023-05-02T08:05:52;17.90;99.90
18868;DHT22;9563;49.240;9.088;2023-05-02T08:08:19;18.30;99.90
18868;DHT22;9563;49.240;9.088;2023-05-02T08:10:47;18.50;99.90
18868;DHT22;9563;49.240;9.088;2023-05-02T08:13:15;18.50;99.90
18868;DHT22;9563;49.240;9.088;2023-05-02T08:15:42;18.60;99.90
18868;DHT22;9563;49.240;9.088;2023-05-02T08:18:09;18.60;99.90
18868;DHT22;9563;49.240;9.088;2023-05-02T08:20:36;18.80;99.90
18868;DHT22;9563;49.240;9.088;2023-05-02T08:23:03;19.00;99.90
18868;DHT22;9563;49.240;9.088;2023-05-02T08:25:30;18.90;99.90
18868;DHT22;9563;49.240;9.088;2023-05-02T08:27:58;18.70;99.90
18868;DHT22;9563;49.240;9.088;2023-05-02T08:30:25;18.60;99.90
18868;DHT22;9563;49.240;9.088;2023-05-02T08:32:51;18.70;99.90
18868;DHT22;9563;49.240;9.088;2023-05-02T08:35:18;19.00;99.90
18868;DHT22;9563;49.240;9.088;2023-05-02T08:37:45;18.90;99.90
18868;DHT22;9563;49.240;9.088;2023-05-02T08:40:13;18.80;99.90
18868;DHT22;9563;49.240;9.088;2023-05-02T08:42:41;19.10;99.90
18868;DHT22;9563;49.240;9.088;2023-05-02T08:45:12;18.90;99.90
18868;DHT22;9563;49.240;9.088;2023-05-02T08:47:40;18.70;99.90
18868;DHT22;9563;49.240;9.088;2023-05-02T08:50:08;18.80;99.90
18868;DHT22;9563;49.240;9.088;2023-05-02T08:52:36;19.30;99.90
18868;DHT22;9563;49.240;9.088;2023-05-02T08:55:05;19.80;99.90
18868;DHT22;9563;49.240;9.088;2023-05-02T08:57:32;20.40;99.90
18868;DHT22;9563;49.240;9.088;2023-05-02T08:59:59;20.30;99.90
18868;DHT22;9563;49.240;9.088;2023-05-02T09:02:47;20.60;99.90
18868;DHT22;9563;49.240;9.088;2023-05-02T09:05:18;20.70;99.90
18868;DHT22;9563;49.240;9.088;2023-05-02T09:07:47;20.60;99.90
18868;DHT22;9563;49.240;9.088;2023-05-02T09:10:14;20.00;99.90
18868;DHT22;9563;49.240;9.088;2023-05-02T09:12:41;19.50;99.90
18868;DHT22;9563;49.240;9.088;2023-05-02T09:15:09;19.00;99.90
18868;DHT22;9563;49.240;9.088;2023-05-02T09:17:45;18.70;99.90
18868;DHT22;9563;49.240;9.088;2023-05-02T09:20:13;18.50;99.90
18868;DHT22;9563;49.240;9.088;2023-05-02T09:22:47;18.90;99.90
18868;DHT22;9563;49.240;9.088;2023-05-02T09:25:15;19.20;99.90
18868;DHT22;9563;49.240;9.088;2023-05-02T09:27:52;19.30;99.90
18868;DHT22;9563;49.240;9.088;2023-05-02T09:30:22;19.40;99.90
18868;DHT22;9563;49.240;9.088;2023-05-02T09:32:51;19.10;99.90
18868;DHT22;9563;49.240;9.088;2023-05-02T09:35:20;18.90;99.90
18868;DHT22;9563;49.240;9.088;2023-05-02T09:37:53;19.10;99.90
18868;DHT22;9563;49.240;9.088;2023-05-02T09:40:20;19.60;99.90
18868;DHT22;9563;49.240;9.088;2023-05-02T09:42:47;20.20;99.90
18868;DHT22;9563;49.240;9.088;2023-05-02T09:45:19;20.10;99.90
18868;DHT22;9563;49.240;9.088;2023-05-02T09:47:47;19.80;99.90
18868;DHT22;9563;49.240;9.088;2023-05-02T09:50:34;19.60;99.90
18868;DHT22;9563;49.240;9.088;2023-05-02T09:53:02;19.20;99.90
18868;DHT22;9563;49.240;9.088;2023-05-02T09:55:29;18.80;99.90
18868;DHT22;9563;49.240;9.088;2023-05-02T09:57:56;18.40;99.90
18868;DHT22;9563;49.240;9.088;2023-05-02T10:00:37;18.20;99.90
18868;DHT22;9563;49.240;9.088;2023-05-02T10:03:06;18.10;99.90
18868;DHT22;9563;49.240;9.088;2023-05-02T10:05:35;18.00;99.90
18868;DHT22;9563;49.240;9.088;2023-05-02T10:08:03;18.30;99.90
18868;DHT22;9563;49.240;9.088;2023-05-02T10:10:32;19.00;99.90
18868;DHT22;9563;49.240;9.088;2023-05-02T10:13:03;19.50;99.90
18868;DHT22;9563;49.240;9.088;2023-05-02T10:15:31;20.40;99.90
18868;DHT22;9563;49.240;9.088;2023-05-02T10:17:59;20.50;99.90
18868;DHT22;9563;49.240;9.088;2023-05-02T10:20:31;20.70;99.90
18868;DHT22;9563;49.240;9.088;2023-05-02T10:23:00;20.60;99.90
18868;DHT22;9563;49.240;9.088;2023-05-02T10:25:27;20.40;99.90
18868;DHT22;9563;49.240;9.088;2023-05-02T10:27:56;20.10;99.90
18868;DHT22;9563;49.240;9.088;2023-05-02T10:30:24;19.40;99.90
18868;DHT22;9563;49.240;9.088;2023-05-02T10:32:52;19.00;99.90
18868;DHT22;9563;49.240;9.088;2023-05-02T10:35:20;18.70;99.90
18868;DHT22;9563;49.240;9.088;2023-05-02T10:37:49;18.50;99.90
18868;DHT22;9563;49.240;9.088;2023-05-02T10:40:18;18.50;99.90
18868;DHT22;9563;49.240;9.088;2023-05-02T10:42:46;18.00;99.90
18868;DHT22;9563;49.240;9.088;2023-05-02T10:45:30;17.90;99.90
18868;DHT22;9563;49.240;9.088;2023-05-02T10:48:14;18.20;99.90
18868;DHT22;9563;49.240;9.088;2023-05-02T10:50:43;18.40;99.90
18868;DHT22;9563;49.240;9.088;2023-05-02T10:53:28;18.20;99.90
18868;DHT22;9563;49.240;9.088;2023-05-02T10:56:17;18.00;99.90
18868;DHT22;9563;49.240;9.088;2023-05-02T10:58:46;17.40;99.90
18868;DHT22;9563;49.240;9.088;2023-05-02T11:01:36;17.00;99.90
18868;DHT22;9563;49.240;9.088;2023-05-02T11:04:09;16.60;99.90
18868;DHT22;9563;49.240;9.088;2023-05-02T11:07:16;16.40;99.90
18868;DHT22;9563;49.240;9.088;2023-05-02T11:09:43;16.20;99.90
18868;DHT22;9563;49.240;9.088;2023-05-02T11:12:44;15.90;99.90
18868;DHT22;9563;49.240;9.088;2023-05-02T11:15:12;15.80;99.90
18868;DHT22;9563;49.240;9.088;2023-05-02T11:17:58;15.70;99.90
18868;DHT22;9563;49.240;9.088;2023-05-02T11:20:26;15.60;99.90
18868;DHT22;9563;49.240;9.088;2023-05-02T11:22:58;15.60;99.90
18868;DHT22;9563;49.240;9.088;2023-05-02T11:25:32;15.70;99.90
18868;DHT22;9563;49.240;9.088;2023-05-02T11:28:00;15.80;99.90
18868;DHT22;9563;49.240;9.088;2023-05-02T11:30:41;15.90;99.90
18868;DHT22;9563;49.240;9.088;2023-05-02T11:33:16;15.90;99.90
18868;DHT22;9563;49.240;9.088;2023-05-02T11:35:45;16.00;99.90
18868;DHT22;9563;49.240;9.088;2023-05-02T11:38:15;16.10;99.90
18868;DHT22;9563;49.240;9.088;2023-05-02T11:40:53;16.10;99.90
18868;DHT22;9563;49.240;9.088;2023-05-02T11:43:23;16.10;99.90
18868;DHT22;9563;49.240;9.088;2023-05-02T11:45:51;16.20;99.90
18868;DHT22;9563;49.240;9.088;2023-05-02T11:48:19;16.30;99.90
18868;DHT22;9563;49.240;9.088;2023-05-02T11:50:47;16.90;99.90
18868;DHT22;9563;49.240;9.088;2023-05-02T11:53:16;17.50;99.90
18868;DHT22;9563;49.240;9.088;2023-05-02T11:55:44;18.30;99.90
18868;DHT22;9563;49.240;9.088;2023-05-02T11:58:12;19.10;99.90
18868;DHT22;9563;49.240;9.088;2023-05-02T12:00:42;19.80;99.90
18868;DHT22;9563;49.240;9.088;2023-05-02T12:03:22;20.20;99.90
18868;DHT22;9563;49.240;9.088;2023-05-02T12:05:49;20.70;99.90
18868;DHT22;9563;49.240;9.088;2023-05-02T12:08:18;20.80;99.90
18868;DHT22;9563;49.240;9.088;2023-05-02T12:10:45;21.10;99.90
18868;DHT22;9563;49.240;9.088;2023-05-02T12:13:12;21.20;99.90
18868;DHT22;9563;49.240;9.088;2023-05-02T12:15:41;21.20;99.90
18868;DHT22;9563;49.240;9.088;2023-05-02T12:18:08;21.30;99.90
18868;DHT22;9563;49.240;9.088;2023-05-02T12:20:35;21.70;99.90
18868;DHT22;9563;49.240;9.088;2023-05-02T12:23:03;22.00;99.90
18868;DHT22;9563;49.240;9.088;2023-05-02T12:25:31;22.10;99.90
18868;DHT22;9563;49.240;9.088;2023-05-02T12:27:59;22.40;99.90
18868;DHT22;9563;49.240;9.088;2023-05-02T12:30:26;22.50;99.90
18868;DHT22;9563;49.240;9.088;2023-05-02T12:32:57;22.70;99.90
18868;DHT22;9563;49.240;9.088;2023-05-02T12:35:26;22.80;99.90
18868;DHT22;9563;49.240;9.088;2023-05-02T12:37:53;22.70;99.90
18868;DHT22;9563;49.240;9.088;2023-05-02T12:40:21;22.60;99.90
18868;DHT22;9563;49.240;9.088;2023-05-02T12:42:58;22.50;99.90
18868;DHT22;9563;49.240;9.088;2023-05-02T12:45:25;21.80;99.90
18868;DHT22;9563;49.240;9.088;2023-05-02T12:47:53;21.10;99.90
18868;DHT22;9563;49.240;9.088;2023-05-02T12:50:34;20.50;99.90
18868;DHT22;9563;49.240;9.088;2023-05-02T12:53:02;20.20;99.90
18868;DHT22;9563;49.240;9.088;2023-05-02T12:55:29;20.40;99.90
18868;DHT22;9563;49.240;9.088;2023-05-02T12:58:01;20.70;99.90
18868;DHT22;9563;49.240;9.088;2023-05-02T13:00:28;20.40;99.90
18868;DHT22;9563;49.240;9.088;2023-05-02T13:02:56;20.20;99.90
18868;DHT22;9563;49.240;9.088;2023-05-02T13:05:24;19.70;99.90
18868;DHT22;9563;49.240;9.088;2023-05-02T13:07:51;19.30;99.90
18868;DHT22;9563;49.240;9.088;2023-05-02T13:10:21;18.90;99.90
18868;DHT22;9563;49.240;9.088;2023-05-02T13:12:49;18.70;99.90
18868;DHT22;9563;49.240;9.088;2023-05-02T13:15:17;18.50;99.90
18868;DHT22;9563;49.240;9.088;2023-05-02T13:17:44;18.20;99.90
18868;DHT22;9563;49.240;9.088;2023-05-02T13:20:11;18.20;99.90
18868;DHT22;9563;49.240;9.088;2023-05-02T13:22:40;18.30;99.90
18868;DHT22;9563;49.240;9.088;2023-05-02T13:25:07;18.30;99.90
18868;DHT22;9563;49.240;9.088;2023-05-02T13:27:34;18.20;99.90
18868;DHT22;9563;49.240;9.088;2023-05-02T13:30:01;18.40;99.90
18868;DHT22;9563;49.240;9.088;2023-05-02T13:32:28;18.50;99.90
18868;DHT22;9563;49.240;9.088;2023-05-02T13:34:55;18.80;99.90
18868;DHT22;9563;49.240;9.088;2023-05-02T13:37:23;19.20;99.90
18868;DHT22;9563;49.240;9.088;2023-05-02T13:39:52;19.10;99.90
18868;DHT22;9563;49.240;9.088;2023-05-02T13:42:19;18.90;99.90
18868;DHT22;9563;49.240;9.088;2023-05-02T13:44:46;18.80;99.90
18868;DHT22;9563;49.240;9.088;2023-05-02T13:47:13;18.60;99.90
18868;DHT22;9563;49.240;9.088;2023-05-02T13:49:40;18.60;99.90
18868;DHT22;9563;49.240;9.088;2023-05-02T13:52:07;18.60;99.90
18868;DHT22;9563;49.240;9.088;2023-05-02T13:54:34;18.90;99.90
18868;DHT22;9563;49.240;9.088;2023-05-02T13:57:02;19.20;99.90
18868;DHT22;9563;49.240;9.088;2023-05-02T13:59:30;19.50;99.90
18868;DHT22;9563;49.240;9.088;2023-05-02T14:01:57;19.80;99.90
18868;DHT22;9563;49.240;9.088;2023-05-02T14:04:24;20.40;99.90
18868;DHT22;9563;49.240;9.088;2023-05-02T14:06:51;20.90;99.90
18868;DHT22;9563;49.240;9.088;2023-05-02T14:09:18;21.20;99.90
18868;DHT22;9563;49.240;9.088;2023-05-02T14:11:45;21.10;99.90
18868;DHT22;9563;49.240;9.088;2023-05-02T14:14:14;20.90;99.90
18868;DHT22;9563;49.240;9.088;2023-05-02T14:16:41;20.90;99.90
18868;DHT22;9563;49.240;9.088;2023-05-02T14:19:09;20.70;99.90
18868;DHT22;9563;49.240;9.088;2023-05-02T14:21:36;20.60;99.90
18868;DHT22;9563;49.240;9.088;2023-05-02T14:24:04;20.50;99.90
18868;DHT22;9563;49.240;9.088;2023-05-02T14:26:32;20.70;99.90
18868;DHT22;9563;49.240;9.088;2023-05-02T14:28:59;20.80;99.90
18868;DHT22;9563;49.240;9.088;2023-05-02T14:31:28;20.90;99.90
18868;DHT22;9563;49.240;9.088;2023-05-02T14:33:55;21.00;99.90
18868;DHT22;9563;49.240;9.088;2023-05-02T14:36:22;20.90;99.90
18868;DHT22;9563;49.240;9.088;2023-05-02T14:38:49;21.00;99.90
18868;DHT22;9563;49.240;9.088;2023-05-02T14:41:15;21.10;99.90
18868;DHT22;9563;49.240;9.088;2023-05-02T14:43:42;21.00;99.90
18868;DHT22;9563;49.240;9.088;2023-05-02T14:46:09;21.20;99.90
18868;DHT22;9563;49.240;9.088;2023-05-02T14:48:37;21.40;99.90
18868;DHT22;9563;49.240;9.088;2023-05-02T14:51:05;21.60;99.80
18868;DHT22;9563;49.240;9.088;2023-05-02T14:53:32;21.70;99.00
18868;DHT22;9563;49.240;9.088;2023-05-02T14:55:59;21.60;97.40
18868;DHT22;9563;49.240;9.088;2023-05-02T14:58:25;21.60;97.40
18868;DHT22;9563;49.240;9.088;2023-05-02T15:00:52;21.90;98.00
18868;DHT22;9563;49.240;9.088;2023-05-02T15:03:19;21.90;96.90
18868;DHT22;9563;49.240;9.088;2023-05-02T15:05:48;21.90;96.50
18868;DHT22;9563;49.240;9.088;2023-05-02T15:08:14;21.70;96.60
18868;DHT22;9563;49.240;9.088;2023-05-02T15:10:41;21.50;99.20
18868;DHT22;9563;49.240;9.088;2023-05-02T15:13:08;21.60;99.90
18868;DHT22;9563;49.240;9.088;2023-05-02T15:15:35;21.40;98.00
18868;DHT22;9563;49.240;9.088;2023-05-02T15:18:02;21.40;99.70
18868;DHT22;9563;49.240;9.088;2023-05-02T15:20:29;21.40;99.50
18868;DHT22;9563;49.240;9.088;2023-05-02T15:22:57;21.40;99.30
18868;DHT22;9563;49.240;9.088;2023-05-02T15:25:27;21.20;96.50
18868;DHT22;9563;49.240;9.088;2023-05-02T15:27:55;21.20;96.70
18868;DHT22;9563;49.240;9.088;2023-05-02T15:30:22;21.20;97.00
18868;DHT22;9563;49.240;9.088;2023-05-02T15:32:49;21.20;97.90
18868;DHT22;9563;49.240;9.088;2023-05-02T15:35:15;21.10;95.40
18868;DHT22;9563;49.240;9.088;2023-05-02T15:37:42;20.90;97.20
18868;DHT22;9563;49.240;9.088;2023-05-02T15:40:11;20.90;98.80
18868;DHT22;9563;49.240;9.088;2023-05-02T15:42:39;21.00;99.60
18868;DHT22;9563;49.240;9.088;2023-05-02T15:45:07;21.00;98.60
18868;DHT22;9563;49.240;9.088;2023-05-02T15:47:36;20.70;96.00
18868;DHT22;9563;49.240;9.088;2023-05-02T15:50:03;20.00;94.30
18868;DHT22;9563;49.240;9.088;2023-05-02T15:52:30;19.70;95.60
18868;DHT22;9563;49.240;9.088;2023-05-02T15:54:57;19.30;96.30
18868;DHT22;9563;49.240;9.088;2023-05-02T15:57:27;18.90;96.50
18868;DHT22;9563;49.240;9.088;2023-05-02T15:59:54;18.60;97.20
18868;DHT22;9563;49.240;9.088;2023-05-02T16:02:21;18.30;98.00
18868;DHT22;9563;49.240;9.088;2023-05-02T16:04:48;18.00;98.90
18868;DHT22;9563;49.240;9.088;2023-05-02T16:07:15;17.90;99.90
18868;DHT22;9563;49.240;9.088;2023-05-02T16:09:41;17.70;99.90
18868;DHT22;9563;49.240;9.088;2023-05-02T16:12:08;17.50;99.90
18868;DHT22;9563;49.240;9.088;2023-05-02T16:14:36;17.40;99.90
18868;DHT22;9563;49.240;9.088;2023-05-02T16:17:03;17.30;99.90
18868;DHT22;9563;49.240;9.088;2023-05-02T16:19:30;17.30;99.90
18868;DHT22;9563;49.240;9.088;2023-05-02T16:21:58;17.30;99.90
18868;DHT22;9563;49.240;9.088;2023-05-02T16:24:25;17.10;99.90
18868;DHT22;9563;49.240;9.088;2023-05-02T16:26:52;17.10;99.90
18868;DHT22;9563;49.240;9.088;2023-05-02T16:29:19;17.20;99.90
18868;DHT22;9563;49.240;9.088;2023-05-02T16:31:47;17.40;99.90
18868;DHT22;9563;49.240;9.088;2023-05-02T16:34:14;17.60;99.90
18868;DHT22;9563;49.240;9.088;2023-05-02T16:36:41;17.80;99.90
18868;DHT22;9563;49.240;9.088;2023-05-02T16:39:08;17.70;99.90
18868;DHT22;9563;49.240;9.088;2023-05-02T16:41:36;17.60;99.90
18868;DHT22;9563;49.240;9.088;2023-05-02T16:44:03;17.60;99.90
18868;DHT22;9563;49.240;9.088;2023-05-02T16:46:30;17.60;99.90
18868;DHT22;9563;49.240;9.088;2023-05-02T16:48:58;17.50;99.90
18868;DHT22;9563;49.240;9.088;2023-05-02T16:51:25;17.60;99.90
18868;DHT22;9563;49.240;9.088;2023-05-02T16:53:52;17.60;99.90
18868;DHT22;9563;49.240;9.088;2023-05-02T16:56:19;17.50;99.90
18868;DHT22;9563;49.240;9.088;2023-05-02T16:58:46;17.40;99.90
18868;DHT22;9563;49.240;9.088;2023-05-02T17:01:13;17.50;99.90
18868;DHT22;9563;49.240;9.088;2023-05-02T17:03:40;17.50;99.90
18868;DHT22;9563;49.240;9.088;2023-05-02T17:06:08;17.40;99.90
18868;DHT22;9563;49.240;9.088;2023-05-02T17:08:35;17.50;99.90
18868;DHT22;9563;49.240;9.088;2023-05-02T17:11:02;17.30;99.90
18868;DHT22;9563;49.240;9.088;2023-05-02T17:13:30;17.30;99.90
18868;DHT22;9563;49.240;9.088;2023-05-02T17:15:57;17.20;99.90
18868;DHT22;9563;49.240;9.088;2023-05-02T17:18:24;17.10;99.90
18868;DHT22;9563;49.240;9.088;2023-05-02T17:20:51;17.00;99.90
18868;DHT22;9563;49.240;9.088;2023-05-02T17:23:20;16.90;99.90
18868;DHT22;9563;49.240;9.088;2023-05-02T17:25:47;16.90;99.90
18868;DHT22;9563;49.240;9.088;2023-05-02T17:28:15;16.90;99.90
18868;DHT22;9563;49.240;9.088;2023-05-02T17:30:42;16.80;99.90
18868;DHT22;9563;49.240;9.088;2023-05-02T17:33:09;16.70;99.90
18868;DHT22;9563;49.240;9.088;2023-05-02T17:35:36;16.70;99.90
18868;DHT22;9563;49.240;9.088;2023-05-02T17:38:03;16.70;99.90
18868;DHT22;9563;49.240;9.088;2023-05-02T17:40:31;16.50;99.90
18868;DHT22;9563;49.240;9.088;2023-05-02T17:42:58;16.50;99.90
18868;DHT22;9563;49.240;9.088;2023-05-02T17:45:26;16.30;99.90
18868;DHT22;9563;49.240;9.088;2023-05-02T17:47:53;16.30;99.90
18868;DHT22;9563;49.240;9.088;2023-05-02T17:50:20;16.30;99.90
18868;DHT22;9563;49.240;9.088;2023-05-02T17:52:47;16.20;99.90
18868;DHT22;9563;49.240;9.088;2023-05-02T17:55:14;16.20;99.90
18868;DHT22;9563;49.240;9.088;2023-05-02T17:57:42;16.10;99.90
18868;DHT22;9563;49.240;9.088;2023-05-02T18:00:10;16.10;99.90
18868;DHT22;9563;49.240;9.088;2023-05-02T18:02:37;15.90;99.90
18868;DHT22;9563;49.240;9.088;2023-05-02T18:05:04;15.90;99.90
18868;DHT22;9563;49.240;9.088;2023-05-02T18:07:31;15.90;99.90
18868;DHT22;9563;49.240;9.088;2023-05-02T18:09:58;15.80;99.90
18868;DHT22;9563;49.240;9.088;2023-05-02T18:12:27;15.70;99.90
18868;DHT22;9563;49.240;9.088;2023-05-02T18:14:57;15.60;99.90
18868;DHT22;9563;49.240;9.088;2023-05-02T18:17:24;15.60;99.90
18868;DHT22;9563;49.240;9.088;2023-05-02T18:19:51;15.50;99.90
18868;DHT22;9563;49.240;9.088;2023-05-02T18:22:18;15.50;99.90
18868;DHT22;9563;49.240;9.088;2023-05-02T18:24:46;15.40;99.90
18868;DHT22;9563;49.240;9.088;2023-05-02T18:27:13;15.40;99.90
18868;DHT22;9563;49.240;9.088;2023-05-02T18:29:40;15.30;99.90
18868;DHT22;9563;49.240;9.088;2023-05-02T18:32:09;15.20;99.90
18868;DHT22;9563;49.240;9.088;2023-05-02T18:34:36;15.00;99.90
18868;DHT22;9563;49.240;9.088;2023-05-02T18:37:03;14.90;99.90
18868;DHT22;9563;49.240;9.088;2023-05-02T18:39:30;14.80;99.90
18868;DHT22;9563;49.240;9.088;2023-05-02T18:41:57;14.80;99.90
18868;DHT22;9563;49.240;9.088;2023-05-02T18:44:27;14.70;99.90
18868;DHT22;9563;49.240;9.088;2023-05-02T18:46:54;14.70;99.90
18868;DHT22;9563;49.240;9.088;2023-05-02T18:49:23;14.60;99.90
18868;DHT22;9563;49.240;9.088;2023-05-02T18:51:52;14.50;99.90
18868;DHT22;9563;49.240;9.088;2023-05-02T18:54:19;14.50;99.90
18868;DHT22;9563;49.240;9.088;2023-05-02T18:56:47;14.50;99.90
18868;DHT22;9563;49.240;9.088;2023-05-02T18:59:14;14.40;99.90
18868;DHT22;9563;49.240;9.088;2023-05-02T19:01:44;14.40;99.90
18868;DHT22;9563;49.240;9.088;2023-05-02T19:04:11;14.30;99.90
18868;DHT22;9563;49.240;9.088;2023-05-02T19:06:40;14.20;99.90
18868;DHT22;9563;49.240;9.088;2023-05-02T19:09:07;14.20;99.90
18868;DHT22;9563;49.240;9.088;2023-05-02T19:11:34;14.20;99.90
18868;DHT22;9563;49.240;9.088;2023-05-02T19:14:01;14.10;99.90
18868;DHT22;9563;49.240;9.088;2023-05-02T19:16:28;14.00;99.90
18868;DHT22;9563;49.240;9.088;2023-05-02T19:18:55;14.00;99.90
18868;DHT22;9563;49.240;9.088;2023-05-02T19:21:22;13.90;99.90
18868;DHT22;9563;49.240;9.088;2023-05-02T19:23:51;13.80;99.90
18868;DHT22;9563;49.240;9.088;2023-05-02T19:26:20;13.70;99.90
18868;DHT22;9563;49.240;9.088;2023-05-02T19:28:47;13.70;99.90
18868;DHT22;9563;49.240;9.088;2023-05-02T19:31:16;13.60;99.90
18868;DHT22;9563;49.240;9.088;2023-05-02T19:33:43;13.60;99.90
18868;DHT22;9563;49.240;9.088;2023-05-02T19:36:16;13.60;99.90
18868;DHT22;9563;49.240;9.088;2023-05-02T19:38:43;13.60;99.90
18868;DHT22;9563;49.240;9.088;2023-05-02T19:41:11;13.50;99.90
18868;DHT22;9563;49.240;9.088;2023-05-02T19:43:38;13.50;99.90
18868;DHT22;9563;49.240;9.088;2023-05-02T19:46:05;13.50;99.90
18868;DHT22;9563;49.240;9.088;2023-05-02T19:48:32;13.50;99.90
18868;DHT22;9563;49.240;9.088;2023-05-02T19:51:00;13.50;99.90
18868;DHT22;9563;49.240;9.088;2023-05-02T19:53:28;13.50;99.90
18868;DHT22;9563;49.240;9.088;2023-05-02T19:55:55;13.40;99.90
18868;DHT22;9563;49.240;9.088;2023-05-02T19:58:24;13.40;99.90
18868;DHT22;9563;49.240;9.088;2023-05-02T20:00:51;13.30;99.90
18868;DHT22;9563;49.240;9.088;2023-05-02T20:03:19;13.30;99.90
18868;DHT22;9563;49.240;9.088;2023-05-02T20:05:47;13.20;99.90
18868;DHT22;9563;49.240;9.088;2023-05-02T20:08:15;13.20;99.90
18868;DHT22;9563;49.240;9.088;2023-05-02T20:10:42;13.10;99.90
18868;DHT22;9563;49.240;9.088;2023-05-02T20:13:10;13.10;99.90
18868;DHT22;9563;49.240;9.088;2023-05-02T20:15:39;13.10;99.90
18868;DHT22;9563;49.240;9.088;2023-05-02T20:18:06;13.00;99.90
18868;DHT22;9563;49.240;9.088;2023-05-02T20:20:33;13.00;99.90
18868;DHT22;9563;49.240;9.088;2023-05-02T20:22:59;12.90;99.90
18868;DHT22;9563;49.240;9.088;2023-05-02T20:25:26;12.90;99.90
18868;DHT22;9563;49.240;9.088;2023-05-02T20:27:53;12.90;99.90
18868;DHT22;9563;49.240;9.088;2023-05-02T20:30:20;12.80;99.90
18868;DHT22;9563;49.240;9.088;2023-05-02T20:32:48;12.80;99.90
18868;DHT22;9563;49.240;9.088;2023-05-02T20:35:15;12.70;99.90
18868;DHT22;9563;49.240;9.088;2023-05-02T20:37:42;12.70;99.90
18868;DHT22;9563;49.240;9.088;2023-05-02T20:40:10;12.70;99.90
18868;DHT22;9563;49.240;9.088;2023-05-02T20:42:37;12.70;99.90
18868;DHT22;9563;49.240;9.088;2023-05-02T20:45:07;12.70;99.90
18868;DHT22;9563;49.240;9.088;2023-05-02T20:47:37;12.60;99.90
18868;DHT22;9563;49.240;9.088;2023-05-02T20:50:07;12.60;99.90
18868;DHT22;9563;49.240;9.088;2023-05-02T20:52:35;12.50;99.90